createdAt,value
2023-04-29T00:01:24.127Z,99801.41
2023-04-29T00:03:51.862Z,99801.53
2023-04-29T00:06:20.200Z,99803.50
2023-04-29T00:08:48.548Z,99799.34
2023-04-29T00:11:16.248Z,99787.00
2023-04-29T00:13:43.686Z,99796.91
2023-04-29T00:16:11.458Z,99796.38
2023-04-29T00:18:39.841Z,99792.81
2023-04-29T00:21:08.051Z,99795.66
2023-04-29T00:23:36.148Z,99789.19
2023-04-29T00:26:03.754Z,99790.16
2023-04-29T00:28:31.140Z,99794.78
2023-04-29T00:30:58.695Z,99789.94
2023-04-29T00:33:26.820Z,99784.84
2023-04-29T00:35:54.310Z,99785.00
2023-04-29T00:38:21.534Z,99783.22
2023-04-29T00:40:49.385Z,99792.81
2023-04-29T00:43:17.022Z,99790.19
2023-04-29T00:45:47.013Z,99789.44
2023-04-29T00:48:15.994Z,99805.31
2023-04-29T00:50:44.338Z,99803.22
2023-04-29T00:53:14.720Z,99793.13
2023-04-29T00:55:44.252Z,99792.56
2023-04-29T00:58:19.997Z,99803.44
2023-04-29T01:00:58.208Z,99800.69
2023-04-29T01:03:26.189Z,99800.78
2023-04-29T01:06:23.700Z,99793.16
2023-04-29T01:09:11.375Z,99793.72
2023-04-29T01:11:50.746Z,99790.59
2023-04-29T01:14:18.183Z,99795.81
2023-04-29T01:16:51.917Z,99788.03
2023-04-29T01:19:43.067Z,99788.72
2023-04-29T01:22:11.680Z,99787.84
2023-04-29T01:24:39.948Z,99777.75
2023-04-29T01:27:12.787Z,99782.88
2023-04-29T01:29:46.757Z,99784.69
2023-04-29T01:32:15.793Z,99786.22
2023-04-29T01:34:51.208Z,99792.25
2023-04-29T01:37:19.653Z,99785.84
2023-04-29T01:40:06.919Z,99777.03
2023-04-29T01:42:47.197Z,99770.19
2023-04-29T01:45:17.375Z,99781.03
2023-04-29T01:47:46.909Z,99775.50
2023-04-29T01:50:14.884Z,99759.53
2023-04-29T01:52:42.641Z,99757.22
2023-04-29T01:55:10.824Z,99774.00
2023-04-29T01:57:38.921Z,99765.41
2023-04-29T02:00:07.023Z,99769.03
2023-04-29T02:02:41.147Z,99765.94
2023-04-29T02:05:10.194Z,99770.41
2023-04-29T02:07:40.084Z,99777.03
2023-04-29T02:10:08.127Z,99776.00
2023-04-29T02:12:36.450Z,99779.31
2023-04-29T02:15:04.483Z,99776.91
2023-04-29T02:17:33.550Z,99772.47
2023-04-29T02:20:01.314Z,99769.53
2023-04-29T02:22:28.641Z,99773.81
2023-04-29T02:24:56.600Z,99777.41
2023-04-29T02:27:24.862Z,99763.16
2023-04-29T02:29:58.085Z,99762.97
2023-04-29T02:32:25.899Z,99756.50
2023-04-29T02:34:57.199Z,99751.13
2023-04-29T02:37:24.613Z,99755.97
2023-04-29T02:39:51.977Z,99757.69
2023-04-29T02:42:20.393Z,99754.25
2023-04-29T02:44:56.672Z,99748.38
2023-04-29T02:47:25.308Z,99746.25
2023-04-29T02:49:56.613Z,99751.59
2023-04-29T02:52:23.954Z,99745.53
2023-04-29T02:54:58.381Z,99740.00
2023-04-29T02:57:25.925Z,99749.03
2023-04-29T02:59:57.538Z,99749.13
2023-04-29T03:02:25.105Z,99749.50
2023-04-29T03:04:57.212Z,99753.44
2023-04-29T03:07:24.746Z,99762.53
2023-04-29T03:09:59.194Z,99756.78
2023-04-29T03:12:27.678Z,99755.03
2023-04-29T03:14:58.838Z,99757.66
2023-04-29T03:17:28.057Z,99757.06
2023-04-29T03:19:57.978Z,99755.38
2023-04-29T03:22:25.638Z,99759.97
2023-04-29T03:24:53.112Z,99759.56
2023-04-29T03:27:22.514Z,99760.91
2023-04-29T03:29:49.992Z,99758.59
2023-04-29T03:32:17.449Z,99759.78
2023-04-29T03:34:45.779Z,99758.25
2023-04-29T03:37:16.550Z,99747.94
2023-04-29T03:39:45.279Z,99743.69
2023-04-29T03:42:14.271Z,99764.59
2023-04-29T03:44:43.153Z,99772.66
2023-04-29T03:47:11.489Z,99770.56
2023-04-29T03:49:38.997Z,99770.16
2023-04-29T03:52:08.197Z,99771.09
2023-04-29T03:54:38.281Z,99775.06
2023-04-29T03:57:07.046Z,99783.81
2023-04-29T03:59:34.487Z,99781.84
2023-04-29T04:02:02.692Z,99789.66
2023-04-29T04:04:31.032Z,99789.09
2023-04-29T04:07:00.903Z,99783.31
2023-04-29T04:09:29.303Z,99786.72
2023-04-29T04:11:58.984Z,99784.06
2023-04-29T04:14:30.053Z,99787.28
2023-04-29T04:17:01.502Z,99788.34
2023-04-29T04:19:30.721Z,99790.16
2023-04-29T04:22:03.660Z,99782.66
2023-04-29T04:24:35.465Z,99786.34
2023-04-29T04:27:06.052Z,99785.75
2023-04-29T04:29:41.016Z,99791.09
2023-04-29T04:32:10.289Z,99794.13
2023-04-29T04:34:41.484Z,99791.94
2023-04-29T04:37:13.185Z,99790.72
2023-04-29T04:39:43.982Z,99794.87
2023-04-29T04:42:19.207Z,99798.03
2023-04-29T04:44:48.720Z,99796.31
2023-04-29T04:47:18.277Z,99795.84
2023-04-29T04:49:46.965Z,99795.47
2023-04-29T04:52:23.282Z,99792.81
2023-04-29T04:54:52.709Z,99792.59
2023-04-29T04:57:22.972Z,99790.91
2023-04-29T04:59:51.333Z,99778.38
2023-04-29T05:02:20.249Z,99772.69
2023-04-29T05:04:50.170Z,99773.44
2023-04-29T05:07:20.460Z,99776.47
2023-04-29T05:09:51.329Z,99788.72
2023-04-29T05:12:21.084Z,99774.56
2023-04-29T05:14:55.273Z,99773.53
2023-04-29T05:17:26.201Z,99772.97
2023-04-29T05:19:59.874Z,99780.16
2023-04-29T05:22:28.005Z,99781.13
2023-04-29T05:25:03.124Z,99791.28
2023-04-29T05:27:43.526Z,99790.16
2023-04-29T05:30:16.132Z,99786.38
2023-04-29T05:32:45.981Z,99799.34
2023-04-29T05:35:19.264Z,99794.50
2023-04-29T05:37:55.008Z,99792.31
2023-04-29T05:40:28.223Z,99795.66
2023-04-29T05:43:07.044Z,99796.38
2023-04-29T05:45:40.705Z,99798.31
2023-04-29T05:48:14.021Z,99796.41
2023-04-29T05:50:43.315Z,99798.47
2023-04-29T05:53:12.171Z,99797.72
2023-04-29T05:55:40.771Z,99796.59
2023-04-29T05:58:08.897Z,99797.91
2023-04-29T06:00:37.315Z,99805.44
2023-04-29T06:03:06.526Z,99812.06
2023-04-29T06:05:35.881Z,99808.50
2023-04-29T06:08:08.029Z,99810.34
2023-04-29T06:10:41.789Z,99808.66
2023-04-29T06:13:12.144Z,99799.94
2023-04-29T06:15:46.432Z,99794.91
2023-04-29T06:18:15.197Z,99800.69
2023-04-29T06:20:45.077Z,99802.00
2023-04-29T06:23:15.435Z,99804.00
2023-04-29T06:25:52.829Z,99794.69
2023-04-29T06:28:28.317Z,99793.34
2023-04-29T06:30:59.248Z,99807.78
2023-04-29T06:33:35.407Z,99800.22
2023-04-29T06:36:12.050Z,99797.75
2023-04-29T06:38:45.388Z,99803.75
2023-04-29T06:41:13.521Z,99803.22
2023-04-29T06:43:44.014Z,99803.13
2023-04-29T06:46:13.198Z,99801.38
2023-04-29T06:48:47.422Z,99799.22
2023-04-29T06:51:20.037Z,99791.78
2023-04-29T06:53:50.449Z,99799.12
2023-04-29T06:56:26.920Z,99798.16
2023-04-29T06:58:55.736Z,99794.97
2023-04-29T07:01:33.132Z,99802.69
2023-04-29T07:04:03.760Z,99806.12
2023-04-29T07:06:33.505Z,99807.22
2023-04-29T07:09:04.284Z,99803.19
2023-04-29T07:11:34.226Z,99807.75
2023-04-29T07:14:04.195Z,99799.53
2023-04-29T07:16:33.319Z,99805.13
2023-04-29T07:19:02.931Z,99807.09
2023-04-29T07:21:31.762Z,99811.84
2023-04-29T07:24:03.073Z,99806.97
2023-04-29T07:26:35.746Z,99801.50
2023-04-29T07:29:17.095Z,99800.28
2023-04-29T07:31:46.261Z,99796.00
2023-04-29T07:34:14.174Z,99797.88
2023-04-29T07:36:43.493Z,99804.69
2023-04-29T07:39:18.038Z,99800.94
2023-04-29T07:41:47.362Z,99793.88
2023-04-29T07:44:18.065Z,99795.19
2023-04-29T07:46:46.870Z,99787.34
2023-04-29T07:49:26.220Z,99784.72
2023-04-29T07:51:55.502Z,99793.78
2023-04-29T07:54:28.986Z,99795.22
2023-04-29T07:57:04.039Z,99797.34
2023-04-29T07:59:32.941Z,99799.88
2023-04-29T08:02:07.262Z,99801.78
2023-04-29T08:04:39.474Z,99807.41
2023-04-29T08:07:13.208Z,99807.06
2023-04-29T08:09:42.059Z,99810.81
2023-04-29T08:12:16.020Z,99817.06
2023-04-29T08:14:51.678Z,99809.91
2023-04-29T08:17:22.352Z,99807.56
2023-04-29T08:19:50.253Z,99805.25
2023-04-29T08:22:18.611Z,99816.13
2023-04-29T08:24:50.512Z,99809.06
2023-04-29T08:27:20.126Z,99801.34
2023-04-29T08:29:48.745Z,99803.19
2023-04-29T08:32:18.083Z,99799.31
2023-04-29T08:34:49.335Z,99798.34
2023-04-29T08:37:18.682Z,99797.34
2023-04-29T08:39:48.050Z,99801.09
2023-04-29T08:42:16.226Z,99795.94
2023-04-29T08:44:45.493Z,99797.41
2023-04-29T08:47:16.509Z,99799.41
2023-04-29T08:49:45.993Z,99802.72
2023-04-29T08:52:14.568Z,99800.91
2023-04-29T08:54:44.498Z,99804.06
2023-04-29T08:57:12.261Z,99811.19
2023-04-29T08:59:42.361Z,99811.84
2023-04-29T09:02:21.628Z,99814.31
2023-04-29T09:05:00.194Z,99819.13
2023-04-29T09:07:33.141Z,99817.50
2023-04-29T09:12:42.359Z,99821.72
2023-04-29T09:15:16.140Z,99814.81
2023-04-29T09:17:47.943Z,99814.44
2023-04-29T09:20:28.070Z,99813.84
2023-04-29T09:22:57.991Z,99813.03
2023-04-29T09:25:36.570Z,99807.44
2023-04-29T09:28:31.250Z,99809.59
2023-04-29T09:31:00.002Z,99820.38
2023-04-29T09:33:32.077Z,99811.06
2023-04-29T09:36:03.669Z,99811.19
2023-04-29T09:38:35.052Z,99813.78
2023-04-29T09:41:05.199Z,99820.13
2023-04-29T09:43:42.525Z,99808.16
2023-04-29T09:48:49.592Z,99808.44
2023-04-29T09:51:26.301Z,99806.09
2023-04-29T09:53:54.044Z,99802.47
2023-04-29T09:56:23.149Z,99794.38
2023-04-29T09:58:53.078Z,99795.50
2023-04-29T10:01:21.915Z,99791.50
2023-04-29T10:03:51.630Z,99799.53
2023-04-29T10:06:20.015Z,99787.06
2023-04-29T10:08:47.957Z,99796.16
2023-04-29T10:11:16.183Z,99800.63
2023-04-29T10:13:49.059Z,99798.91
2023-04-29T10:16:30.893Z,99788.41
2023-04-29T10:19:00.347Z,99790.44
2023-04-29T10:21:32.133Z,99791.81
2023-04-29T10:24:09.965Z,99789.38
2023-04-29T10:26:40.402Z,99789.66
2023-04-29T10:29:10.295Z,99787.06
2023-04-29T10:31:38.007Z,99785.59
2023-04-29T10:34:06.477Z,99780.34
2023-04-29T10:36:33.992Z,99771.91
2023-04-29T10:39:05.075Z,99767.69
2023-04-29T10:41:49.048Z,99763.28
2023-04-29T10:44:18.193Z,99752.66
2023-04-29T10:46:46.768Z,99756.28
2023-04-29T10:49:24.198Z,99740.34
2023-04-29T10:51:57.814Z,99739.22
2023-04-29T10:54:28.202Z,99739.91
2023-04-29T10:56:58.423Z,99729.78
2023-04-29T10:59:30.048Z,99733.09
2023-04-29T11:01:58.237Z,99734.56
2023-04-29T11:04:27.148Z,99719.63
2023-04-29T11:07:07.127Z,99720.88
2023-04-29T11:09:43.096Z,99706.97
2023-04-29T11:12:12.046Z,99729.22
2023-04-29T11:14:50.584Z,99716.88
2023-04-29T11:19:59.089Z,99708.44
2023-04-29T11:22:30.855Z,99713.56
2023-04-29T11:25:05.094Z,99707.31
2023-04-29T11:27:43.206Z,99714.41
2023-04-29T11:30:15.310Z,99706.75
2023-04-29T11:32:52.263Z,99708.72
2023-04-29T11:35:22.179Z,99706.31
2023-04-29T11:37:49.667Z,99692.34
2023-04-29T11:42:51.375Z,99701.25
2023-04-29T11:45:22.080Z,99702.09
2023-04-29T11:47:53.948Z,99702.50
2023-04-29T11:50:23.580Z,99704.22
2023-04-29T11:53:02.170Z,99703.97
2023-04-29T11:55:31.514Z,99709.31
2023-04-29T11:58:00.181Z,99704.06
2023-04-29T12:00:31.353Z,99701.09
2023-04-29T12:02:59.526Z,99703.66
2023-04-29T12:05:33.555Z,99704.47
2023-04-29T12:08:08.068Z,99705.78
2023-04-29T12:10:38.094Z,99696.16
2023-04-29T12:13:10.078Z,99700.25
2023-04-29T12:15:42.193Z,99687.72
2023-04-29T12:18:12.282Z,99688.22
2023-04-29T12:20:45.344Z,99688.69
2023-04-29T12:23:16.220Z,99694.47
2023-04-29T12:25:53.277Z,99696.66
2023-04-29T12:28:30.669Z,99688.69
2023-04-29T12:31:00.299Z,99682.63
2023-04-29T12:33:33.638Z,99684.12
2023-04-29T12:36:15.858Z,99669.09
2023-04-29T12:38:44.790Z,99669.22
2023-04-29T12:41:16.061Z,99665.22
2023-04-29T12:43:46.104Z,99666.19
2023-04-29T12:46:19.997Z,99655.00
2023-04-29T12:48:50.422Z,99659.09
2023-04-29T12:51:25.314Z,99668.56
2023-04-29T12:53:54.470Z,99666.44
2023-04-29T12:56:27.057Z,99664.16
2023-04-29T12:58:58.044Z,99655.00
2023-04-29T13:01:26.561Z,99657.78
2023-04-29T13:03:54.856Z,99654.69
2023-04-29T13:06:23.716Z,99643.78
2023-04-29T13:08:53.797Z,99640.34
2023-04-29T13:11:34.107Z,99631.44
2023-04-29T13:14:04.829Z,99623.66
2023-04-29T13:16:38.173Z,99624.78
2023-04-29T13:19:27.730Z,99642.69
2023-04-29T13:21:58.355Z,99632.72
2023-04-29T13:24:26.454Z,99623.56
2023-04-29T13:26:54.717Z,99620.56
2023-04-29T13:29:24.072Z,99612.94
2023-04-29T13:31:59.182Z,99614.31
2023-04-29T13:34:34.180Z,99600.00
2023-04-29T13:37:02.775Z,99599.00
2023-04-29T13:39:31.680Z,99598.94
2023-04-29T13:42:01.238Z,99601.88
2023-04-29T13:44:35.857Z,99596.87
2023-04-29T13:47:18.105Z,99609.69
2023-04-29T13:50:22.836Z,99603.16
2023-04-29T13:56:11.593Z,99598.59
2023-04-29T13:58:56.183Z,99593.66
2023-04-29T14:01:37.914Z,99595.25
2023-04-29T14:04:00.452Z,99590.13
2023-04-29T14:06:38.097Z,99601.16
2023-04-29T14:09:06.532Z,99601.22
2023-04-29T14:11:37.172Z,99591.03
2023-04-29T14:14:13.168Z,99595.31
2023-04-29T14:16:45.568Z,99589.22
2023-04-29T14:19:19.212Z,99584.53
2023-04-29T14:21:56.288Z,99577.31
2023-04-29T14:24:25.197Z,99580.84
2023-04-29T14:26:53.597Z,99573.69
2023-04-29T14:29:22.120Z,99579.53
2023-04-29T14:31:52.122Z,99586.41
2023-04-29T14:34:22.095Z,99596.63
2023-04-29T14:36:59.042Z,99589.97
2023-04-29T14:39:27.557Z,99587.41
2023-04-29T14:41:58.511Z,99580.09
2023-04-29T14:44:33.152Z,99585.16
2023-04-29T14:47:06.335Z,99597.34
2023-04-29T14:52:20.297Z,99584.22
2023-04-29T14:55:01.064Z,99594.97
2023-04-29T14:57:31.214Z,99591.31
2023-04-29T14:59:59.343Z,99583.03
2023-04-29T15:02:27.725Z,99590.53
2023-04-29T15:07:32.054Z,99592.94
2023-04-29T15:10:01.132Z,99592.59
2023-04-29T15:12:33.187Z,99584.22
2023-04-29T15:15:11.176Z,99588.91
2023-04-29T15:17:41.164Z,99584.91
2023-04-29T15:20:12.140Z,99581.63
2023-04-29T15:22:43.523Z,99588.22
2023-04-29T15:25:27.811Z,99584.22
2023-04-29T15:27:59.324Z,99582.31
2023-04-29T15:30:42.136Z,99590.03
2023-04-29T15:33:12.138Z,99586.84
2023-04-29T15:35:43.350Z,99573.53
2023-04-29T15:38:16.150Z,99575.84
2023-04-29T15:40:44.251Z,99587.81
2023-04-29T15:43:12.105Z,99577.75
2023-04-29T15:45:49.236Z,99586.56
2023-04-29T15:48:18.581Z,99575.41
2023-04-29T15:50:54.841Z,99583.22
2023-04-29T15:53:34.154Z,99578.50
2023-04-29T15:56:08.151Z,99564.47
2023-04-29T15:58:40.603Z,99567.09
2023-04-29T16:01:09.485Z,99573.31
2023-04-29T16:03:38.533Z,99579.16
2023-04-29T16:06:08.638Z,99573.09
2023-04-29T16:08:48.083Z,99573.19
2023-04-29T16:11:24.645Z,99571.41
2023-04-29T16:13:55.171Z,99572.41
2023-04-29T16:16:35.068Z,99578.06
2023-04-29T16:19:05.150Z,99576.47
2023-04-29T16:24:24.272Z,99575.19
2023-04-29T16:26:56.782Z,99580.09
2023-04-29T16:29:30.325Z,99578.00
2023-04-29T16:31:59.528Z,99570.09
2023-04-29T16:34:27.157Z,99574.03
2023-04-29T16:36:55.028Z,99577.50
2023-04-29T16:39:23.481Z,99576.94
2023-04-29T16:41:59.712Z,99579.41
2023-04-29T16:44:27.888Z,99583.63
2023-04-29T16:46:57.013Z,99571.66
2023-04-29T16:49:26.793Z,99571.44
2023-04-29T16:51:55.340Z,99577.47
2023-04-29T16:54:25.170Z,99567.09
2023-04-29T16:56:55.131Z,99564.41
2023-04-29T16:59:25.609Z,99559.37
2023-04-29T17:01:54.456Z,99570.56
2023-04-29T17:04:23.233Z,99577.91
2023-04-29T17:06:57.334Z,99575.66
2023-04-29T17:09:26.161Z,99578.03
2023-04-29T17:12:09.258Z,99579.25
2023-04-29T17:14:44.377Z,99583.53
2023-04-29T17:17:17.528Z,99582.81
2023-04-29T17:19:52.458Z,99589.06
2023-04-29T17:22:26.239Z,99587.06
2023-04-29T17:24:54.531Z,99593.16
2023-04-29T17:27:30.924Z,99602.22
2023-04-29T17:32:45.122Z,99599.00
2023-04-29T17:35:13.656Z,99605.50
2023-04-29T17:37:41.821Z,99600.41
2023-04-29T17:40:13.183Z,99603.22
2023-04-29T17:42:50.157Z,99603.22
2023-04-29T17:45:25.664Z,99610.72
2023-04-29T17:47:55.144Z,99617.09
2023-04-29T17:50:23.439Z,99618.88
2023-04-29T17:52:57.187Z,99617.47
2023-04-29T17:55:32.100Z,99623.28
2023-04-29T17:58:08.554Z,99621.78
2023-04-29T18:00:37.649Z,99620.91
2023-04-29T18:03:13.453Z,99630.84
2023-04-29T18:05:47.521Z,99627.06
2023-04-29T18:08:17.669Z,99624.31
2023-04-29T18:10:46.248Z,99628.47
2023-04-29T18:13:19.217Z,99628.88
2023-04-29T18:15:52.267Z,99637.94
2023-04-29T18:18:24.073Z,99638.72
2023-04-29T18:20:59.562Z,99636.69
2023-04-29T18:23:28.741Z,99638.13
2023-04-29T18:25:59.153Z,99638.66
2023-04-29T18:28:29.489Z,99643.19
2023-04-29T18:30:59.451Z,99647.66
2023-04-29T18:33:34.186Z,99655.31
2023-04-29T18:36:09.478Z,99655.66
2023-04-29T18:38:42.182Z,99665.75
2023-04-29T18:41:11.145Z,99669.59
2023-04-29T18:43:46.708Z,99666.59
2023-04-29T18:46:21.353Z,99671.72
2023-04-29T18:48:48.863Z,99679.75
2023-04-29T18:51:18.154Z,99680.50
2023-04-29T18:53:52.271Z,99681.22
2023-04-29T18:56:26.541Z,99686.09
2023-04-29T18:59:21.236Z,99690.72
2023-04-29T19:02:04.140Z,99691.06
2023-04-29T19:04:47.772Z,99693.31
2023-04-29T19:07:31.332Z,99700.19
2023-04-29T19:10:31.145Z,99696.78
2023-04-29T19:13:20.573Z,99702.72
2023-04-29T19:16:12.613Z,99703.59
2023-04-29T19:18:53.271Z,99694.47
2023-04-29T19:21:53.428Z,99704.81
2023-04-29T19:24:39.205Z,99705.06
2023-04-29T19:27:34.062Z,99709.44
2023-04-29T19:33:17.231Z,99705.63
2023-04-29T19:36:05.730Z,99710.13
2023-04-29T19:38:57.322Z,99707.22
2023-04-29T19:41:40.152Z,99705.47
2023-04-29T19:44:27.417Z,99709.88
2023-04-29T19:47:15.163Z,99714.53
2023-04-29T19:50:00.202Z,99711.31
2023-04-29T19:52:48.222Z,99714.72
2023-04-29T19:55:42.859Z,99717.16
2023-04-29T20:01:33.157Z,99716.53
2023-04-29T20:04:31.361Z,99716.41
2023-04-29T20:07:17.448Z,99727.06
2023-04-29T20:10:29.948Z,99722.91
2023-04-29T20:13:08.223Z,99723.91
2023-04-29T20:15:51.146Z,99728.19
2023-04-29T20:18:36.137Z,99725.91
2023-04-29T20:21:24.388Z,99729.88
2023-04-29T20:24:06.627Z,99723.62
2023-04-29T20:27:03.861Z,99720.25
2023-04-29T20:29:46.235Z,99724.63
2023-04-29T20:32:28.668Z,99715.81
2023-04-29T20:35:29.827Z,99723.06
2023-04-29T20:38:14.156Z,99721.66
2023-04-29T20:41:09.182Z,99720.25
2023-04-29T20:43:49.208Z,99730.44
2023-04-29T20:46:31.811Z,99720.97
2023-04-29T20:49:25.098Z,99720.34
2023-04-29T20:52:16.587Z,99718.63
2023-04-29T20:55:12.167Z,99722.72
2023-04-29T20:57:56.232Z,99736.91
2023-04-29T21:00:50.150Z,99741.41
2023-04-29T21:03:33.120Z,99734.56
2023-04-29T21:06:40.336Z,99738.38
2023-04-29T21:09:22.093Z,99746.59
2023-04-29T21:12:05.886Z,99753.03
2023-04-29T21:14:52.242Z,99749.16
2023-04-29T21:17:46.359Z,99749.37
2023-04-29T21:20:29.120Z,99748.72
2023-04-29T21:23:33.211Z,99744.53
2023-04-29T21:26:15.081Z,99743.25
2023-04-29T21:28:57.193Z,99740.88
2023-04-29T21:31:39.472Z,99751.50
2023-04-29T21:34:41.490Z,99752.69
2023-04-29T21:37:24.329Z,99749.69
2023-04-29T21:40:08.909Z,99747.19
2023-04-29T21:42:58.327Z,99752.50
2023-04-29T21:45:50.593Z,99758.75
2023-04-29T21:48:31.600Z,99758.63
2023-04-29T21:51:26.868Z,99764.22
2023-04-29T21:54:09.304Z,99758.94
2023-04-29T21:57:00.592Z,99764.59
2023-04-29T21:59:43.021Z,99759.88
2023-04-29T22:02:38.229Z,99753.31
2023-04-29T22:05:21.524Z,99761.38
2023-04-29T22:08:15.859Z,99754.34
2023-04-29T22:10:55.200Z,99757.56
2023-04-29T22:13:50.147Z,99752.69
2023-04-29T22:16:34.148Z,99750.16
2023-04-29T22:19:21.856Z,99749.81
2023-04-29T22:22:05.317Z,99750.37
2023-04-29T22:25:00.185Z,99745.25
2023-04-29T22:27:41.856Z,99745.03
2023-04-29T22:30:36.718Z,99740.16
2023-04-29T22:33:19.539Z,99751.09
2023-04-29T22:36:04.245Z,99755.97
2023-04-29T22:38:55.723Z,99751.19
2023-04-29T22:41:23.860Z,99754.75
2023-04-29T22:43:57.270Z,99756.91
2023-04-29T22:46:26.884Z,99756.81
2023-04-29T22:49:02.132Z,99755.91
2023-04-29T22:51:32.358Z,99750.53
2023-04-29T22:54:00.732Z,99753.00
2023-04-29T22:56:29.261Z,99758.16
2023-04-29T22:58:56.897Z,99763.50
2023-04-29T23:01:49.002Z,99760.06
2023-04-29T23:04:28.951Z,99753.50
2023-04-29T23:07:21.215Z,99756.72
2023-04-29T23:10:13.360Z,99762.41
2023-04-29T23:12:52.093Z,99763.88
2023-04-29T23:15:56.185Z,99766.56
2023-04-29T23:18:35.284Z,99765.31
2023-04-29T23:21:27.256Z,99773.66
2023-04-29T23:24:08.142Z,99769.88
2023-04-29T23:27:00.134Z,99769.59
2023-04-29T23:29:41.649Z,99764.37
2023-04-29T23:32:33.070Z,99765.09
2023-04-29T23:35:12.163Z,99759.56
2023-04-29T23:38:05.783Z,99761.97
2023-04-29T23:40:56.815Z,99764.53
2023-04-29T23:43:41.168Z,99758.47
2023-04-29T23:46:32.812Z,99756.47
2023-04-29T23:49:12.437Z,99756.84
2023-04-29T23:51:53.906Z,99757.87
2023-04-29T23:54:44.953Z,99751.38
2023-04-29T23:57:27.007Z,99753.19
2023-04-29T23:59:59.743Z,99750.44
